sensor_id;sensor_type;location;lat;lon;timestamp;P1;durP1;ratioP1;P2;durP2;ratioP2
40611;SDS011;26317;44.894;20.286;2023-05-24T00:02:00;24.73;;;15.25;;
40611;SDS011;26317;44.894;20.286;2023-05-24T00:05:02;23.75;;;14.63;;
40611;SDS011;26317;44.894;20.286;2023-05-24T00:07:34;27.15;;;14.77;;
40611;SDS011;26317;44.894;20.286;2023-05-24T00:10:13;21.40;;;13.88;;
40611;SDS011;26317;44.894;20.286;2023-05-24T00:12:48;21.77;;;13.90;;
40611;SDS011;26317;44.894;20.286;2023-05-24T00:15:31;21.42;;;12.52;;
40611;SDS011;26317;44.894;20.286;2023-05-24T00:18:14;22.13;;;13.07;;
40611;SDS011;26317;44.894;20.286;2023-05-24T00:21:05;18.67;;;13.40;;
40611;SDS011;26317;44.894;20.286;2023-05-24T00:26:24;21.75;;;13.85;;
40611;SDS011;26317;44.894;20.286;2023-05-24T00:29:01;19.52;;;14.18;;
40611;SDS011;26317;44.894;20.286;2023-05-24T00:31:43;18.13;;;14.10;;
40611;SDS011;26317;44.894;20.286;2023-05-24T00:34:24;19.00;;;12.48;;
40611;SDS011;26317;44.894;20.286;2023-05-24T00:37:13;19.52;;;15.27;;
40611;SDS011;26317;44.894;20.286;2023-05-24T00:39:50;17.85;;;13.80;;
40611;SDS011;26317;44.894;20.286;2023-05-24T00:42:25;15.25;;;13.55;;
40611;SDS011;26317;44.894;20.286;2023-05-24T00:45:13;16.05;;;13.70;;
40611;SDS011;26317;44.894;20.286;2023-05-24T00:47:49;16.10;;;14.10;;
40611;SDS011;26317;44.894;20.286;2023-05-24T00:50:29;24.88;;;17.35;;
40611;SDS011;26317;44.894;20.286;2023-05-24T00:53:15;25.60;;;17.85;;
40611;SDS011;26317;44.894;20.286;2023-05-24T00:55:50;23.30;;;16.35;;
40611;SDS011;26317;44.894;20.286;2023-05-24T00:58:23;22.55;;;17.27;;
40611;SDS011;26317;44.894;20.286;2023-05-24T01:01:06;22.48;;;17.73;;
40611;SDS011;26317;44.894;20.286;2023-05-24T01:04:08;19.92;;;17.02;;
40611;SDS011;26317;44.894;20.286;2023-05-24T01:07:01;25.35;;;17.63;;
40611;SDS011;26317;44.894;20.286;2023-05-24T01:09:58;25.65;;;17.88;;
40611;SDS011;26317;44.894;20.286;2023-05-24T01:12:49;24.10;;;17.10;;
40611;SDS011;26317;44.894;20.286;2023-05-24T01:15:32;25.88;;;17.90;;
40611;SDS011;26317;44.894;20.286;2023-05-24T01:18:32;22.27;;;16.58;;
40611;SDS011;26317;44.894;20.286;2023-05-24T01:21:18;22.02;;;16.17;;
40611;SDS011;26317;44.894;20.286;2023-05-24T01:24:15;20.73;;;15.73;;
40611;SDS011;26317;44.894;20.286;2023-05-24T01:27:08;21.88;;;15.15;;
40611;SDS011;26317;44.894;20.286;2023-05-24T01:38:14;18.73;;;14.63;;
40611;SDS011;26317;44.894;20.286;2023-05-24T01:40:56;18.10;;;14.93;;
40611;SDS011;26317;44.894;20.286;2023-05-24T01:43:47;18.52;;;13.93;;
40611;SDS011;26317;44.894;20.286;2023-05-24T01:46:38;23.77;;;14.30;;
40611;SDS011;26317;44.894;20.286;2023-05-24T01:49:19;19.55;;;14.13;;
40611;SDS011;26317;44.894;20.286;2023-05-24T01:51:59;21.70;;;16.95;;
40611;SDS011;26317;44.894;20.286;2023-05-24T01:54:43;23.20;;;16.73;;
40611;SDS011;26317;44.894;20.286;2023-05-24T01:57:29;18.10;;;15.98;;
40611;SDS011;26317;44.894;20.286;2023-05-24T02:00:31;20.88;;;16.27;;
40611;SDS011;26317;44.894;20.286;2023-05-24T02:03:11;17.95;;;15.52;;
40611;SDS011;26317;44.894;20.286;2023-05-24T02:06:00;20.17;;;16.00;;
40611;SDS011;26317;44.894;20.286;2023-05-24T02:08:40;20.15;;;16.67;;
40611;SDS011;26317;44.894;20.286;2023-05-24T02:11:19;20.08;;;15.68;;
40611;SDS011;26317;44.894;20.286;2023-05-24T02:14:01;20.73;;;16.02;;
40611;SDS011;26317;44.894;20.286;2023-05-24T02:16:52;18.20;;;16.13;;
40611;SDS011;26317;44.894;20.286;2023-05-24T02:19:32;24.73;;;15.00;;
40611;SDS011;26317;44.894;20.286;2023-05-24T02:22:12;20.58;;;15.00;;
40611;SDS011;26317;44.894;20.286;2023-05-24T02:24:51;20.20;;;15.60;;
40611;SDS011;26317;44.894;20.286;2023-05-24T02:27:23;17.45;;;15.43;;
40611;SDS011;26317;44.894;20.286;2023-05-24T02:29:56;19.40;;;14.80;;
40611;SDS011;26317;44.894;20.286;2023-05-24T02:32:34;25.25;;;14.88;;
40611;SDS011;26317;44.894;20.286;2023-05-24T02:35:13;22.50;;;15.48;;
40611;SDS011;26317;44.894;20.286;2023-05-24T02:38:09;20.05;;;15.38;;
40611;SDS011;26317;44.894;20.286;2023-05-24T02:40:46;18.25;;;14.15;;
40611;SDS011;26317;44.894;20.286;2023-05-24T02:43:32;16.95;;;15.25;;
40611;SDS011;26317;44.894;20.286;2023-05-24T02:46:13;18.90;;;16.08;;
40611;SDS011;26317;44.894;20.286;2023-05-24T02:49:08;20.52;;;15.10;;
40611;SDS011;26317;44.894;20.286;2023-05-24T02:51:39;21.33;;;16.65;;
40611;SDS011;26317;44.894;20.286;2023-05-24T02:54:25;20.05;;;15.07;;
40611;SDS011;26317;44.894;20.286;2023-05-24T02:57:05;22.80;;;16.25;;
40611;SDS011;26317;44.894;20.286;2023-05-24T02:59:43;21.58;;;15.80;;
40611;SDS011;26317;44.894;20.286;2023-05-24T03:02:16;18.85;;;14.13;;
40611;SDS011;26317;44.894;20.286;2023-05-24T03:05:04;18.52;;;14.20;;
40611;SDS011;26317;44.894;20.286;2023-05-24T03:07:43;20.55;;;16.20;;
40611;SDS011;26317;44.894;20.286;2023-05-24T03:10:22;28.23;;;15.35;;
40611;SDS011;26317;44.894;20.286;2023-05-24T03:12:58;27.05;;;16.13;;
40611;SDS011;26317;44.894;20.286;2023-05-24T03:15:41;20.42;;;15.75;;
40611;SDS011;26317;44.894;20.286;2023-05-24T03:18:17;18.52;;;15.30;;
40611;SDS011;26317;44.894;20.286;2023-05-24T03:21:19;22.00;;;15.82;;
40611;SDS011;26317;44.894;20.286;2023-05-24T03:23:57;23.00;;;16.52;;
40611;SDS011;26317;44.894;20.286;2023-05-24T03:26:40;19.85;;;16.73;;
40611;SDS011;26317;44.894;20.286;2023-05-24T03:29:22;19.90;;;17.80;;
40611;SDS011;26317;44.894;20.286;2023-05-24T03:31:56;20.52;;;18.30;;
40611;SDS011;26317;44.894;20.286;2023-05-24T03:34:40;21.15;;;18.65;;
40611;SDS011;26317;44.894;20.286;2023-05-24T03:37:19;20.50;;;18.40;;
40611;SDS011;26317;44.894;20.286;2023-05-24T03:39:51;23.77;;;18.42;;
40611;SDS011;26317;44.894;20.286;2023-05-24T03:42:51;24.27;;;17.45;;
40611;SDS011;26317;44.894;20.286;2023-05-24T03:45:59;26.95;;;19.08;;
40611;SDS011;26317;44.894;20.286;2023-05-24T03:48:44;24.13;;;19.42;;
40611;SDS011;26317;44.894;20.286;2023-05-24T03:51:28;25.58;;;19.40;;
40611;SDS011;26317;44.894;20.286;2023-05-24T03:54:15;26.38;;;21.25;;
40611;SDS011;26317;44.894;20.286;2023-05-24T03:56:49;24.55;;;21.92;;
40611;SDS011;26317;44.894;20.286;2023-05-24T03:59:25;26.23;;;20.42;;
40611;SDS011;26317;44.894;20.286;2023-05-24T04:02:07;29.40;;;21.15;;
40611;SDS011;26317;44.894;20.286;2023-05-24T04:04:52;30.23;;;21.73;;
40611;SDS011;26317;44.894;20.286;2023-05-24T04:07:37;24.25;;;21.13;;
40611;SDS011;26317;44.894;20.286;2023-05-24T04:10:15;27.73;;;19.60;;
40611;SDS011;26317;44.894;20.286;2023-05-24T04:12:56;24.27;;;21.00;;
40611;SDS011;26317;44.894;20.286;2023-05-24T04:15:37;27.65;;;18.95;;
40611;SDS011;26317;44.894;20.286;2023-05-24T04:18:19;19.38;;;17.40;;
40611;SDS011;26317;44.894;20.286;2023-05-24T04:20:52;25.50;;;17.90;;
40611;SDS011;26317;44.894;20.286;2023-05-24T04:23:29;18.65;;;16.75;;
40611;SDS011;26317;44.894;20.286;2023-05-24T04:26:15;29.15;;;18.42;;
40611;SDS011;26317;44.894;20.286;2023-05-24T04:29:01;26.63;;;18.42;;
40611;SDS011;26317;44.894;20.286;2023-05-24T04:31:50;20.95;;;16.98;;
40611;SDS011;26317;44.894;20.286;2023-05-24T04:34:35;20.52;;;17.13;;
40611;SDS011;26317;44.894;20.286;2023-05-24T04:37:19;27.77;;;18.40;;
40611;SDS011;26317;44.894;20.286;2023-05-24T04:39:59;25.63;;;18.85;;
40611;SDS011;26317;44.894;20.286;2023-05-24T04:42:46;30.05;;;18.50;;
40611;SDS011;26317;44.894;20.286;2023-05-24T04:45:22;24.65;;;17.77;;
40611;SDS011;26317;44.894;20.286;2023-05-24T04:48:01;21.25;;;17.42;;
40611;SDS011;26317;44.894;20.286;2023-05-24T04:50:36;29.50;;;19.23;;
40611;SDS011;26317;44.894;20.286;2023-05-24T04:53:15;22.30;;;18.48;;
40611;SDS011;26317;44.894;20.286;2023-05-24T04:55:51;28.45;;;19.88;;
40611;SDS011;26317;44.894;20.286;2023-05-24T04:58:47;22.63;;;17.88;;
40611;SDS011;26317;44.894;20.286;2023-05-24T05:01:23;25.98;;;19.27;;
40611;SDS011;26317;44.894;20.286;2023-05-24T05:04:04;22.13;;;18.10;;
40611;SDS011;26317;44.894;20.286;2023-05-24T05:06:41;21.52;;;18.42;;
40611;SDS011;26317;44.894;20.286;2023-05-24T05:09:23;23.35;;;18.35;;
40611;SDS011;26317;44.894;20.286;2023-05-24T05:12:00;27.77;;;19.30;;
40611;SDS011;26317;44.894;20.286;2023-05-24T05:14:38;25.60;;;20.17;;
40611;SDS011;26317;44.894;20.286;2023-05-24T05:17:21;21.98;;;16.92;;
40611;SDS011;26317;44.894;20.286;2023-05-24T05:20:00;21.63;;;16.92;;
40611;SDS011;26317;44.894;20.286;2023-05-24T05:22:33;20.92;;;17.80;;
40611;SDS011;26317;44.894;20.286;2023-05-24T05:25:32;19.83;;;16.67;;
40611;SDS011;26317;44.894;20.286;2023-05-24T05:28:03;23.17;;;16.27;;
40611;SDS011;26317;44.894;20.286;2023-05-24T05:30:44;17.38;;;15.57;;
40611;SDS011;26317;44.894;20.286;2023-05-24T05:33:34;21.85;;;15.25;;
40611;SDS011;26317;44.894;20.286;2023-05-24T05:36:07;16.85;;;13.82;;
40611;SDS011;26317;44.894;20.286;2023-05-24T05:38:46;19.67;;;14.10;;
40611;SDS011;26317;44.894;20.286;2023-05-24T05:41:26;26.03;;;15.17;;
40611;SDS011;26317;44.894;20.286;2023-05-24T05:43:59;16.58;;;14.82;;
40611;SDS011;26317;44.894;20.286;2023-05-24T05:46:38;15.77;;;12.93;;
40611;SDS011;26317;44.894;20.286;2023-05-24T05:49:19;16.13;;;12.77;;
40611;SDS011;26317;44.894;20.286;2023-05-24T05:51:53;15.98;;;14.32;;
40611;SDS011;26317;44.894;20.286;2023-05-24T05:54:48;21.73;;;14.60;;
40611;SDS011;26317;44.894;20.286;2023-05-24T05:57:26;18.38;;;15.02;;
40611;SDS011;26317;44.894;20.286;2023-05-24T06:00:20;18.80;;;15.13;;
40611;SDS011;26317;44.894;20.286;2023-05-24T06:03:00;21.15;;;16.88;;
40611;SDS011;26317;44.894;20.286;2023-05-24T06:05:41;20.17;;;15.50;;
40611;SDS011;26317;44.894;20.286;2023-05-24T06:08:22;20.27;;;16.75;;
40611;SDS011;26317;44.894;20.286;2023-05-24T06:11:02;24.75;;;17.02;;
40611;SDS011;26317;44.894;20.286;2023-05-24T06:13:43;16.35;;;14.73;;
40611;SDS011;26317;44.894;20.286;2023-05-24T06:16:21;16.30;;;14.52;;
40611;SDS011;26317;44.894;20.286;2023-05-24T06:19:04;18.80;;;14.68;;
40611;SDS011;26317;44.894;20.286;2023-05-24T06:21:39;17.52;;;14.90;;
40611;SDS011;26317;44.894;20.286;2023-05-24T06:24:22;17.17;;;13.63;;
40611;SDS011;26317;44.894;20.286;2023-05-24T06:27:06;18.92;;;13.77;;
40611;SDS011;26317;44.894;20.286;2023-05-24T06:29:43;23.20;;;14.07;;
40611;SDS011;26317;44.894;20.286;2023-05-24T06:32:23;18.13;;;13.07;;
40611;SDS011;26317;44.894;20.286;2023-05-24T06:35:21;18.98;;;12.70;;
40611;SDS011;26317;44.894;20.286;2023-05-24T06:38:07;16.50;;;13.73;;
40611;SDS011;26317;44.894;20.286;2023-05-24T06:40:46;18.20;;;13.93;;
40611;SDS011;26317;44.894;20.286;2023-05-24T06:43:29;19.33;;;12.93;;
40611;SDS011;26317;44.894;20.286;2023-05-24T06:46:06;18.40;;;12.65;;
40611;SDS011;26317;44.894;20.286;2023-05-24T06:48:57;20.08;;;12.88;;
40611;SDS011;26317;44.894;20.286;2023-05-24T06:51:39;14.95;;;13.45;;
40611;SDS011;26317;44.894;20.286;2023-05-24T06:54:21;17.15;;;13.95;;
40611;SDS011;26317;44.894;20.286;2023-05-24T06:56:58;23.90;;;15.05;;
40611;SDS011;26317;44.894;20.286;2023-05-24T06:59:36;17.63;;;14.73;;
40611;SDS011;26317;44.894;20.286;2023-05-24T07:02:13;17.35;;;14.30;;
40611;SDS011;26317;44.894;20.286;2023-05-24T07:04:52;23.90;;;15.48;;
40611;SDS011;26317;44.894;20.286;2023-05-24T07:07:37;18.33;;;14.00;;
40611;SDS011;26317;44.894;20.286;2023-05-24T07:10:12;19.63;;;16.52;;
40611;SDS011;26317;44.894;20.286;2023-05-24T07:12:55;19.73;;;16.10;;
40611;SDS011;26317;44.894;20.286;2023-05-24T07:15:30;19.63;;;16.13;;
40611;SDS011;26317;44.894;20.286;2023-05-24T07:18:10;25.90;;;16.90;;
40611;SDS011;26317;44.894;20.286;2023-05-24T07:20:48;20.60;;;16.90;;
40611;SDS011;26317;44.894;20.286;2023-05-24T07:23:25;19.42;;;16.85;;
40611;SDS011;26317;44.894;20.286;2023-05-24T07:26:07;19.77;;;16.90;;
40611;SDS011;26317;44.894;20.286;2023-05-24T07:28:40;20.77;;;18.58;;
40611;SDS011;26317;44.894;20.286;2023-05-24T07:31:16;21.27;;;16.90;;
40611;SDS011;26317;44.894;20.286;2023-05-24T07:34:00;17.42;;;15.45;;
40611;SDS011;26317;44.894;20.286;2023-05-24T07:36:32;19.58;;;15.88;;
40611;SDS011;26317;44.894;20.286;2023-05-24T07:39:11;19.20;;;14.05;;
40611;SDS011;26317;44.894;20.286;2023-05-24T07:41:58;17.77;;;12.70;;
40611;SDS011;26317;44.894;20.286;2023-05-24T07:44:51;18.90;;;15.55;;
40611;SDS011;26317;44.894;20.286;2023-05-24T07:47:34;17.90;;;14.15;;
40611;SDS011;26317;44.894;20.286;2023-05-24T07:50:12;18.60;;;13.65;;
40611;SDS011;26317;44.894;20.286;2023-05-24T07:53:04;22.13;;;13.93;;
40611;SDS011;26317;44.894;20.286;2023-05-24T07:55:59;18.45;;;13.35;;
40611;SDS011;26317;44.894;20.286;2023-05-24T07:58:36;19.92;;;13.38;;
40611;SDS011;26317;44.894;20.286;2023-05-24T08:01:21;15.68;;;12.55;;
40611;SDS011;26317;44.894;20.286;2023-05-24T08:03:58;17.92;;;13.88;;
40611;SDS011;26317;44.894;20.286;2023-05-24T08:06:37;13.75;;;12.27;;
40611;SDS011;26317;44.894;20.286;2023-05-24T08:09:17;15.82;;;14.13;;
40611;SDS011;26317;44.894;20.286;2023-05-24T08:12:05;16.00;;;12.25;;
40611;SDS011;26317;44.894;20.286;2023-05-24T08:14:46;21.23;;;14.32;;
40611;SDS011;26317;44.894;20.286;2023-05-24T08:17:31;16.27;;;13.30;;
40611;SDS011;26317;44.894;20.286;2023-05-24T08:20:13;23.77;;;13.45;;
40611;SDS011;26317;44.894;20.286;2023-05-24T08:22:57;16.80;;;13.30;;
40611;SDS011;26317;44.894;20.286;2023-05-24T08:25:34;21.42;;;14.30;;
40611;SDS011;26317;44.894;20.286;2023-05-24T08:28:23;22.25;;;14.15;;
40611;SDS011;26317;44.894;20.286;2023-05-24T08:31:02;16.88;;;13.52;;
40611;SDS011;26317;44.894;20.286;2023-05-24T08:33:45;14.95;;;13.40;;
40611;SDS011;26317;44.894;20.286;2023-05-24T08:36:40;14.65;;;13.23;;
40611;SDS011;26317;44.894;20.286;2023-05-24T08:39:18;14.85;;;13.13;;
40611;SDS011;26317;44.894;20.286;2023-05-24T08:42:05;16.80;;;14.30;;
40611;SDS011;26317;44.894;20.286;2023-05-24T08:44:57;14.73;;;13.25;;
40611;SDS011;26317;44.894;20.286;2023-05-24T08:47:38;17.77;;;14.25;;
40611;SDS011;26317;44.894;20.286;2023-05-24T08:50:16;20.10;;;13.82;;
40611;SDS011;26317;44.894;20.286;2023-05-24T08:53:02;15.90;;;12.68;;
40611;SDS011;26317;44.894;20.286;2023-05-24T08:55:40;15.38;;;12.93;;
40611;SDS011;26317;44.894;20.286;2023-05-24T08:58:26;19.75;;;13.32;;
40611;SDS011;26317;44.894;20.286;2023-05-24T09:01:14;15.38;;;13.30;;
40611;SDS011;26317;44.894;20.286;2023-05-24T09:03:51;16.88;;;14.52;;
40611;SDS011;26317;44.894;20.286;2023-05-24T09:06:29;20.15;;;15.50;;
40611;SDS011;26317;44.894;20.286;2023-05-24T09:09:29;17.73;;;15.85;;
40611;SDS011;26317;44.894;20.286;2023-05-24T09:12:14;21.00;;;16.15;;
40611;SDS011;26317;44.894;20.286;2023-05-24T09:15:05;17.50;;;13.15;;
40611;SDS011;26317;44.894;20.286;2023-05-24T09:17:51;18.02;;;14.68;;
40611;SDS011;26317;44.894;20.286;2023-05-24T09:20:25;19.73;;;15.57;;
40611;SDS011;26317;44.894;20.286;2023-05-24T09:22:59;17.38;;;13.35;;
40611;SDS011;26317;44.894;20.286;2023-05-24T09:25:39;15.75;;;14.13;;
40611;SDS011;26317;44.894;20.286;2023-05-24T09:28:58;14.00;;;12.60;;
40611;SDS011;26317;44.894;20.286;2023-05-24T09:31:45;14.35;;;12.80;;
40611;SDS011;26317;44.894;20.286;2023-05-24T09:34:35;11.98;;;9.65;;
40611;SDS011;26317;44.894;20.286;2023-05-24T09:37:13;10.57;;;8.37;;
40611;SDS011;26317;44.894;20.286;2023-05-24T09:39:58;11.15;;;9.07;;
40611;SDS011;26317;44.894;20.286;2023-05-24T09:42:37;11.82;;;9.65;;
40611;SDS011;26317;44.894;20.286;2023-05-24T09:45:16;13.00;;;9.88;;
40611;SDS011;26317;44.894;20.286;2023-05-24T09:47:56;13.20;;;10.10;;
40611;SDS011;26317;44.894;20.286;2023-05-24T09:53:17;11.98;;;8.85;;
40611;SDS011;26317;44.894;20.286;2023-05-24T09:56:07;12.73;;;9.18;;
40611;SDS011;26317;44.894;20.286;2023-05-24T09:58:58;16.85;;;9.88;;
40611;SDS011;26317;44.894;20.286;2023-05-24T10:01:42;14.68;;;9.43;;
40611;SDS011;26317;44.894;20.286;2023-05-24T10:07:53;14.15;;;9.55;;
40611;SDS011;26317;44.894;20.286;2023-05-24T10:10:30;10.63;;;8.73;;
40611;SDS011;26317;44.894;20.286;2023-05-24T10:13:09;10.82;;;9.73;;
40611;SDS011;26317;44.894;20.286;2023-05-24T10:15:53;9.75;;;8.63;;
40611;SDS011;26317;44.894;20.286;2023-05-24T10:18:30;9.35;;;8.50;;
40611;SDS011;26317;44.894;20.286;2023-05-24T10:21:10;13.45;;;10.48;;
40611;SDS011;26317;44.894;20.286;2023-05-24T10:23:57;11.95;;;10.75;;
40611;SDS011;26317;44.894;20.286;2023-05-24T10:26:45;12.25;;;10.15;;
40611;SDS011;26317;44.894;20.286;2023-05-24T10:29:26;15.45;;;12.65;;
40611;SDS011;26317;44.894;20.286;2023-05-24T10:32:17;13.30;;;11.98;;
40611;SDS011;26317;44.894;20.286;2023-05-24T10:35:01;16.13;;;12.20;;
40611;SDS011;26317;44.894;20.286;2023-05-24T10:37:46;15.65;;;12.90;;
40611;SDS011;26317;44.894;20.286;2023-05-24T10:40:42;15.50;;;13.80;;
40611;SDS011;26317;44.894;20.286;2023-05-24T10:43:21;19.20;;;13.52;;
40611;SDS011;26317;44.894;20.286;2023-05-24T10:45:57;15.75;;;12.57;;
40611;SDS011;26317;44.894;20.286;2023-05-24T10:48:37;17.48;;;13.60;;
40611;SDS011;26317;44.894;20.286;2023-05-24T10:54:15;17.00;;;12.48;;
40611;SDS011;26317;44.894;20.286;2023-05-24T10:56:59;11.55;;;10.25;;
40611;SDS011;26317;44.894;20.286;2023-05-24T10:59:50;12.57;;;8.15;;
40611;SDS011;26317;44.894;20.286;2023-05-24T11:02:28;8.98;;;6.60;;
40611;SDS011;26317;44.894;20.286;2023-05-24T11:05:15;9.30;;;7.55;;
40611;SDS011;26317;44.894;20.286;2023-05-24T11:07:57;7.05;;;6.35;;
40611;SDS011;26317;44.894;20.286;2023-05-24T11:10:35;8.57;;;7.65;;
40611;SDS011;26317;44.894;20.286;2023-05-24T11:13:17;11.90;;;7.78;;
40611;SDS011;26317;44.894;20.286;2023-05-24T11:15:59;11.57;;;7.97;;
40611;SDS011;26317;44.894;20.286;2023-05-24T11:18:35;8.95;;;6.25;;
40611;SDS011;26317;44.894;20.286;2023-05-24T11:21:19;7.80;;;6.80;;
40611;SDS011;26317;44.894;20.286;2023-05-24T11:23:53;6.88;;;6.15;;
40611;SDS011;26317;44.894;20.286;2023-05-24T11:26:27;10.02;;;7.18;;
40611;SDS011;26317;44.894;20.286;2023-05-24T11:29:11;8.63;;;6.93;;
40611;SDS011;26317;44.894;20.286;2023-05-24T11:31:55;7.80;;;7.18;;
40611;SDS011;26317;44.894;20.286;2023-05-24T11:34:37;9.98;;;7.90;;
40611;SDS011;26317;44.894;20.286;2023-05-24T11:37:26;12.32;;;7.75;;
40611;SDS011;26317;44.894;20.286;2023-05-24T11:40:17;9.20;;;7.90;;
40611;SDS011;26317;44.894;20.286;2023-05-24T11:43:01;9.15;;;7.95;;
40611;SDS011;26317;44.894;20.286;2023-05-24T11:45:54;8.85;;;8.05;;
40611;SDS011;26317;44.894;20.286;2023-05-24T11:48:31;11.43;;;10.10;;
40611;SDS011;26317;44.894;20.286;2023-05-24T11:51:19;12.38;;;9.45;;
40611;SDS011;26317;44.894;20.286;2023-05-24T11:54:31;9.50;;;8.60;;
40611;SDS011;26317;44.894;20.286;2023-05-24T11:57:07;8.52;;;7.75;;
40611;SDS011;26317;44.894;20.286;2023-05-24T11:59:52;11.43;;;8.88;;
40611;SDS011;26317;44.894;20.286;2023-05-24T12:05:29;10.25;;;9.20;;
40611;SDS011;26317;44.894;20.286;2023-05-24T12:08:05;9.73;;;8.63;;
40611;SDS011;26317;44.894;20.286;2023-05-24T12:10:40;13.57;;;8.90;;
40611;SDS011;26317;44.894;20.286;2023-05-24T12:13:35;8.88;;;8.07;;
40611;SDS011;26317;44.894;20.286;2023-05-24T12:16:18;9.85;;;8.85;;
40611;SDS011;26317;44.894;20.286;2023-05-24T12:19:22;18.55;;;10.45;;
40611;SDS011;26317;44.894;20.286;2023-05-24T12:22:03;10.93;;;9.82;;
40611;SDS011;26317;44.894;20.286;2023-05-24T12:24:43;12.88;;;9.45;;
40611;SDS011;26317;44.894;20.286;2023-05-24T12:27:30;12.13;;;9.75;;
40611;SDS011;26317;44.894;20.286;2023-05-24T12:30:23;11.57;;;10.38;;
40611;SDS011;26317;44.894;20.286;2023-05-24T12:33:03;11.85;;;10.77;;
40611;SDS011;26317;44.894;20.286;2023-05-24T12:35:50;10.32;;;9.43;;
40611;SDS011;26317;44.894;20.286;2023-05-24T12:38:26;11.60;;;9.98;;
40611;SDS011;26317;44.894;20.286;2023-05-24T12:41:04;11.10;;;9.07;;
40611;SDS011;26317;44.894;20.286;2023-05-24T12:43:52;10.13;;;8.93;;
40611;SDS011;26317;44.894;20.286;2023-05-24T12:46:30;13.85;;;10.55;;
40611;SDS011;26317;44.894;20.286;2023-05-24T12:49:05;10.63;;;8.60;;
40611;SDS011;26317;44.894;20.286;2023-05-24T12:51:52;14.63;;;10.35;;
40611;SDS011;26317;44.894;20.286;2023-05-24T12:54:31;15.00;;;10.80;;
40611;SDS011;26317;44.894;20.286;2023-05-24T12:57:13;12.02;;;9.00;;
40611;SDS011;26317;44.894;20.286;2023-05-24T12:59:50;13.23;;;9.68;;
40611;SDS011;26317;44.894;20.286;2023-05-24T13:02:26;14.55;;;10.73;;
40611;SDS011;26317;44.894;20.286;2023-05-24T13:04:58;15.50;;;9.90;;
40611;SDS011;26317;44.894;20.286;2023-05-24T13:07:41;12.90;;;7.95;;
40611;SDS011;26317;44.894;20.286;2023-05-24T13:10:25;12.52;;;8.95;;
40611;SDS011;26317;44.894;20.286;2023-05-24T13:12:58;9.13;;;8.23;;
40611;SDS011;26317;44.894;20.286;2023-05-24T13:15:38;10.95;;;8.30;;
40611;SDS011;26317;44.894;20.286;2023-05-24T13:18:17;7.97;;;7.07;;
40611;SDS011;26317;44.894;20.286;2023-05-24T13:20:58;8.43;;;7.63;;
40611;SDS011;26317;44.894;20.286;2023-05-24T13:23:51;7.57;;;6.63;;
40611;SDS011;26317;44.894;20.286;2023-05-24T13:26:29;8.93;;;7.18;;
40611;SDS011;26317;44.894;20.286;2023-05-24T13:29:11;11.82;;;7.22;;
40611;SDS011;26317;44.894;20.286;2023-05-24T13:32:04;11.82;;;8.07;;
40611;SDS011;26317;44.894;20.286;2023-05-24T13:35:03;8.38;;;6.68;;
40611;SDS011;26317;44.894;20.286;2023-05-24T13:37:56;13.90;;;8.27;;
40611;SDS011;26317;44.894;20.286;2023-05-24T13:40:58;9.18;;;8.25;;
40611;SDS011;26317;44.894;20.286;2023-05-24T13:43:34;17.65;;;7.80;;
40611;SDS011;26317;44.894;20.286;2023-05-24T13:46:07;8.60;;;7.68;;
40611;SDS011;26317;44.894;20.286;2023-05-24T13:48:48;13.18;;;9.60;;
40611;SDS011;26317;44.894;20.286;2023-05-24T13:51:24;10.70;;;9.32;;
40611;SDS011;26317;44.894;20.286;2023-05-24T13:53:57;9.55;;;8.55;;
40611;SDS011;26317;44.894;20.286;2023-05-24T13:56:53;10.70;;;8.38;;
40611;SDS011;26317;44.894;20.286;2023-05-24T13:59:27;11.02;;;7.30;;
40611;SDS011;26317;44.894;20.286;2023-05-24T14:02:06;11.40;;;8.55;;
40611;SDS011;26317;44.894;20.286;2023-05-24T14:04:46;18.33;;;9.20;;
40611;SDS011;26317;44.894;20.286;2023-05-24T14:07:35;12.85;;;8.60;;
40611;SDS011;26317;44.894;20.286;2023-05-24T14:10:27;9.07;;;7.25;;
40611;SDS011;26317;44.894;20.286;2023-05-24T14:13:09;8.63;;;7.18;;
40611;SDS011;26317;44.894;20.286;2023-05-24T14:16:08;8.85;;;7.35;;
40611;SDS011;26317;44.894;20.286;2023-05-24T14:18:50;9.57;;;8.50;;
40611;SDS011;26317;44.894;20.286;2023-05-24T14:21:27;12.27;;;8.88;;
40611;SDS011;26317;44.894;20.286;2023-05-24T14:24:13;11.45;;;7.90;;
40611;SDS011;26317;44.894;20.286;2023-05-24T14:26:55;10.57;;;8.73;;
40611;SDS011;26317;44.894;20.286;2023-05-24T14:29:38;16.08;;;10.40;;
40611;SDS011;26317;44.894;20.286;2023-05-24T14:32:17;11.15;;;8.68;;
40611;SDS011;26317;44.894;20.286;2023-05-24T14:35:02;12.45;;;8.88;;
40611;SDS011;26317;44.894;20.286;2023-05-24T14:37:53;12.68;;;8.07;;
40611;SDS011;26317;44.894;20.286;2023-05-24T14:40:30;11.23;;;9.75;;
40611;SDS011;26317;44.894;20.286;2023-05-24T14:46:05;12.75;;;10.35;;
40611;SDS011;26317;44.894;20.286;2023-05-24T14:48:37;12.85;;;8.48;;
40611;SDS011;26317;44.894;20.286;2023-05-24T14:51:19;14.25;;;8.88;;
40611;SDS011;26317;44.894;20.286;2023-05-24T14:53:57;10.95;;;7.75;;
40611;SDS011;26317;44.894;20.286;2023-05-24T14:56:42;11.80;;;7.90;;
40611;SDS011;26317;44.894;20.286;2023-05-24T14:59:16;9.95;;;8.13;;
40611;SDS011;26317;44.894;20.286;2023-05-24T15:02:09;9.18;;;8.35;;
40611;SDS011;26317;44.894;20.286;2023-05-24T15:04:40;12.02;;;9.02;;
40611;SDS011;26317;44.894;20.286;2023-05-24T15:10:13;11.38;;;9.80;;
40611;SDS011;26317;44.894;20.286;2023-05-24T15:12:52;11.60;;;7.53;;
40611;SDS011;26317;44.894;20.286;2023-05-24T15:15:36;10.80;;;8.57;;
40611;SDS011;26317;44.894;20.286;2023-05-24T15:18:18;9.45;;;8.55;;
40611;SDS011;26317;44.894;20.286;2023-05-24T15:20:57;8.23;;;6.93;;
40611;SDS011;26317;44.894;20.286;2023-05-24T15:23:36;10.80;;;7.85;;
40611;SDS011;26317;44.894;20.286;2023-05-24T15:26:17;8.32;;;7.30;;
40611;SDS011;26317;44.894;20.286;2023-05-24T15:29:01;14.32;;;7.13;;
40611;SDS011;26317;44.894;20.286;2023-05-24T15:31:35;7.97;;;7.03;;
40611;SDS011;26317;44.894;20.286;2023-05-24T15:34:30;8.30;;;6.47;;
40611;SDS011;26317;44.894;20.286;2023-05-24T15:37:08;9.82;;;7.10;;
40611;SDS011;26317;44.894;20.286;2023-05-24T15:39:53;7.85;;;6.75;;
40611;SDS011;26317;44.894;20.286;2023-05-24T15:42:41;6.82;;;6.15;;
40611;SDS011;26317;44.894;20.286;2023-05-24T15:45:35;11.55;;;7.28;;
40611;SDS011;26317;44.894;20.286;2023-05-24T15:48:17;12.68;;;7.65;;
40611;SDS011;26317;44.894;20.286;2023-05-24T15:51:13;11.18;;;7.68;;
40611;SDS011;26317;44.894;20.286;2023-05-24T15:53:59;10.63;;;7.28;;
40611;SDS011;26317;44.894;20.286;2023-05-24T15:56:40;10.80;;;7.15;;
40611;SDS011;26317;44.894;20.286;2023-05-24T15:59:21;9.20;;;7.75;;
40611;SDS011;26317;44.894;20.286;2023-05-24T16:02:54;26.55;;;13.85;;
40611;SDS011;26317;44.894;20.286;2023-05-24T16:05:43;12.43;;;8.57;;
40611;SDS011;26317;44.894;20.286;2023-05-24T16:11:52;15.55;;;9.95;;
40611;SDS011;26317;44.894;20.286;2023-05-24T16:14:43;10.18;;;7.07;;
40611;SDS011;26317;44.894;20.286;2023-05-24T16:17:21;8.48;;;6.47;;